Terminal Aerodrome Forecast
Issued by NWS Twin Cities, MN

Home | Current Version | Previous Version | Text Only | Print | Product List | Glossary On
Versions: 1 2 3 4 5 6 7 8 9 10 11 12 13 14 15 16 17 18 19 20 21 22 23 24 25 26 27 28 29 30 31 32
000
FTUS43 KMPX 261000 AAC
TAFMSP
TAF AMD
KMSP 261026Z 2610/2712 09008KT P6SM -SN SCT015 BKN025 OVC050
     FM261200 06008KT 4SM -SN BKN025 OVC040
      TEMPO 2612/2614 2SM -SN
     FM261400 04007KT 2SM -SN BR OVC015
      TEMPO 2615/2619 3/4SM -SN BR OVC005
     FM262000 33011KT 6SM -SN OVC018
     FM270000 31012G19KT P6SM BKN018
     FM270400 32010KT P6SM SKC=

USA.gov is the U.S. government's official web portal to all federal, state and local government web resources and services.